CheckWX is a tool to help pilots better visualize weather data.  It is not intended as a substitute for an official pre-flight weather briefing.

07:27:25 UTC

SBBG TAF
Comandante Gustavo Kraemer Airport
Bagé, Brazil
TAF SBBG 200130Z 2006/2106 19005KT CAVOK TN23/2008Z TX33/2018Z RMK PE B

Feb-20@
06:00 UTC

Feb-20 @ 06:00 UTC

Feb-21@
06:00 UTC

Feb-21 @ 06:00 UTC

TAF SBBG 200130Z 2006/2106 19005KT CAVOK TN23/2008Z TX33/2018Z RMK PE B
Wind
  • 190° at 5 KTS
Visibility
10,000+ meters
Cloud Levels
  • No significant clouds